Time;durP1;ratioP1;P1;durP2;ratioP2;P2;SDS_P1;SDS_P2;PMS_P1;PMS_P2;Temp;Humidity;BMP_temperature;BMP_pressure;BME280_temperature;BME280_humidity;BME280_pressure;Samples;Min_cycle;Max_cycle;Signal;HPM_P1;HPM_P2
2022/09/17 00:01:37;;;;;;;1.37;1.30;;;;;;;;;;4990104;28;20476;-76
2022/09/17 00:04:05;;;;;;;2.67;1.23;;;;;;;;;;4995958;28;20451;-77
2022/09/17 00:06:33;;;;;;;1.90;1.40;;;;;;;;;;4997026;28;21160;-76
2022/09/17 00:09:00;;;;;;;1.03;1.03;;;;;;;;;;4990009;28;20484;-76
2022/09/17 00:11:29;;;;;;;1.30;1.30;;;;;;;;;;4991720;28;20464;-76
2022/09/17 00:13:56;;;;;;;2.33;1.80;;;;;;;;;;4993066;28;20456;-76
2022/09/17 00:16:25;;;;;;;1.20;1.10;;;;;;;;;;4993185;28;20872;-77
2022/09/17 00:18:54;;;;;;;1.60;1.50;;;;;;;;;;4993258;28;20472;-75
2022/09/17 00:21:21;;;;;;;1.33;1.20;;;;;;;;;;4992925;28;20441;-75
2022/09/17 00:23:48;;;;;;;2.40;2.10;;;;;;;;;;4992537;28;20452;-75
2022/09/17 00:26:15;;;;;;;1.87;1.30;;;;;;;;;;4992968;28;20455;-75
2022/09/17 00:28:47;;;;;;;3.43;1.30;;;;;;;;;;4992671;28;20839;-75
2022/09/17 00:31:14;;;;;;;4.93;1.60;;;;;;;;;;4993075;28;20441;-75
2022/09/17 00:33:41;;;;;;;2.63;1.50;;;;;;;;;;4992326;28;20503;-76
2022/09/17 00:36:10;;;;;;;2.63;1.50;;;;;;;;;;4992719;28;20458;-76
2022/09/17 00:38:37;;;;;;;1.90;1.80;;;;;;;;;;4992634;28;20540;-76
2022/09/17 00:41:05;;;;;;;1.70;1.60;;;;;;;;;;4992656;28;20448;-77
2022/09/17 00:43:40;;;;;;;1.30;1.30;;;;;;;;;;4992411;28;20453;-76
2022/09/17 00:46:10;;;;;;;1.30;1.30;;;;;;;;;;4992716;28;20889;-76
2022/09/17 00:48:37;;;;;;;4.33;2.03;;;;;;;;;;4992500;28;20472;-74
2022/09/17 00:51:06;;;;;;;1.53;1.43;;;;;;;;;;4992626;28;20853;-75
2022/09/17 00:53:34;;;;;;;6.33;1.70;;;;;;;;;;4991908;28;20925;-75
2022/09/17 00:56:03;;;;;;;1.33;1.30;;;;;;;;;;4992043;28;20452;-76
2022/09/17 00:58:31;;;;;;;3.13;1.50;;;;;;;;;;4994886;28;20476;-75
2022/09/17 01:00:58;;;;;;;5.67;1.83;;;;;;;;;;4993911;28;20436;-75
2022/09/17 01:03:26;;;;;;;2.00;1.47;;;;;;;;;;4992204;28;20794;-76
2022/09/17 01:05:57;;;;;;;1.60;1.50;;;;;;;;;;4992312;28;20448;-76
2022/09/17 01:08:29;;;;;;;2.10;1.90;;;;;;;;;;4992176;28;20467;-76
2022/09/17 01:11:07;;;;;;;1.67;1.50;;;;;;;;;;4993012;28;20483;-76
2022/09/17 01:13:38;;;;;;;2.00;1.20;;;;;;;;;;4984088;28;20448;-76
2022/09/17 01:16:09;;;;;;;2.20;1.40;;;;;;;;;;4975439;28;20559;-76
2022/09/17 01:18:41;;;;;;;1.60;1.50;;;;;;;;;;4991636;28;20956;-76
2022/09/17 01:21:24;;;;;;;1.60;1.50;;;;;;;;;;4992190;28;20436;-76
2022/09/17 01:24:02;;;;;;;1.90;1.80;;;;;;;;;;4990949;28;20502;-76
2022/09/17 01:26:43;;;;;;;2.57;1.80;;;;;;;;;;4991941;28;20468;-76
2022/09/17 01:29:14;;;;;;;4.20;1.60;;;;;;;;;;4991693;28;20575;-76
2022/09/17 01:31:49;;;;;;;2.83;1.70;;;;;;;;;;4992014;28;20979;-76
2022/09/17 01:34:19;;;;;;;1.60;1.50;;;;;;;;;;4991875;28;20519;-76
2022/09/17 01:36:50;;;;;;;1.63;1.63;;;;;;;;;;4977565;28;20456;-75
2022/09/17 01:39:21;;;;;;;1.47;1.40;;;;;;;;;;4991010;28;20465;-76
2022/09/17 01:41:54;;;;;;;2.20;1.93;;;;;;;;;;4991759;28;20920;-76
2022/09/17 01:44:24;;;;;;;1.60;1.50;;;;;;;;;;4991751;28;20447;-78
2022/09/17 01:46:55;;;;;;;2.23;1.60;;;;;;;;;;4992414;28;20806;-77
2022/09/17 01:49:24;;;;;;;2.70;2.00;;;;;;;;;;4992073;28;20523;-76
2022/09/17 01:51:52;;;;;;;1.77;1.67;;;;;;;;;;4992573;28;20527;-76
2022/09/17 01:54:24;;;;;;;3.50;1.90;;;;;;;;;;4992122;28;20451;-76
2022/09/17 01:56:55;;;;;;;1.93;1.83;;;;;;;;;;4991884;28;20445;-76
2022/09/17 01:59:26;;;;;;;2.60;2.10;;;;;;;;;;4992012;28;20806;-76
2022/09/17 02:02:00;;;;;;;2.03;1.90;;;;;;;;;;4992174;28;20428;-76
2022/09/17 02:04:29;;;;;;;3.20;1.70;;;;;;;;;;4991716;28;20436;-76
2022/09/17 02:06:59;;;;;;;1.90;1.80;;;;;;;;;;4992010;28;20448;-77
2022/09/17 02:09:30;;;;;;;2.10;1.90;;;;;;;;;;4991995;28;20468;-76
2022/09/17 02:12:00;;;;;;;2.80;1.97;;;;;;;;;;4992330;28;20483;-76
2022/09/17 02:14:29;;;;;;;4.10;1.80;;;;;;;;;;4996797;28;20440;-76
2022/09/17 02:17:02;;;;;;;1.73;1.60;;;;;;;;;;4998025;28;20451;-75
2022/09/17 02:19:31;;;;;;;7.53;2.60;;;;;;;;;;4996653;28;20487;-77
2022/09/17 02:22:02;;;;;;;1.80;1.70;;;;;;;;;;4993082;28;20534;-75
2022/09/17 02:24:32;;;;;;;3.63;2.30;;;;;;;;;;4992285;28;20434;-76
2022/09/17 02:27:02;;;;;;;3.13;2.20;;;;;;;;;;4995595;28;20449;-76
2022/09/17 02:29:32;;;;;;;4.20;2.37;;;;;;;;;;4996528;28;20464;-75
2022/09/17 02:32:00;;;;;;;2.50;2.20;;;;;;;;;;4995976;28;20542;-76
2022/09/17 02:34:28;;;;;;;2.73;2.07;;;;;;;;;;5003600;28;20448;-75
2022/09/17 02:36:55;;;;;;;2.00;1.90;;;;;;;;;;5006658;28;20506;-76
2022/09/17 02:39:23;;;;;;;4.43;2.10;;;;;;;;;;5006311;28;20460;-75
2022/09/17 02:41:53;;;;;;;2.00;1.90;;;;;;;;;;4998669;28;20499;-76
2022/09/17 02:44:24;;;;;;;3.60;2.07;;;;;;;;;;4993919;28;20451;-76
2022/09/17 02:47:00;;;;;;;2.10;2.00;;;;;;;;;;4994376;28;20445;-76
2022/09/17 02:49:40;;;;;;;2.50;1.63;;;;;;;;;;4993667;28;21005;-76
2022/09/17 02:52:11;;;;;;;1.77;1.67;;;;;;;;;;4996434;28;20432;-75
2022/09/17 02:54:41;;;;;;;2.73;2.23;;;;;;;;;;4998725;28;20833;-75
2022/09/17 02:57:15;;;;;;;2.57;1.67;;;;;;;;;;4998290;28;20436;-76
2022/09/17 02:59:47;;;;;;;5.97;2.20;;;;;;;;;;4997824;28;20432;-76
2022/09/17 03:02:18;;;;;;;3.70;3.40;;;;;;;;;;4998934;28;20432;-77
2022/09/17 03:04:48;;;;;;;6.57;2.20;;;;;;;;;;4997573;28;20436;-75
2022/09/17 03:07:15;;;;;;;2.20;2.00;;;;;;;;;;4993003;28;20868;-75
2022/09/17 03:09:43;;;;;;;2.20;2.10;;;;;;;;;;4974232;28;20460;-77
2022/09/17 03:12:10;;;;;;;2.33;1.70;;;;;;;;;;4991136;28;20804;-76
2022/09/17 03:14:37;;;;;;;2.43;2.00;;;;;;;;;;4991092;28;20515;-76
2022/09/17 03:17:04;;;;;;;2.83;1.97;;;;;;;;;;4990799;28;20953;-75
2022/09/17 03:19:31;;;;;;;4.00;2.17;;;;;;;;;;4991072;28;20814;-76
2022/09/17 03:22:00;;;;;;;2.70;2.37;;;;;;;;;;4990986;28;20507;-76
2022/09/17 03:24:27;;;;;;;3.13;1.80;;;;;;;;;;4987690;28;20458;-76
2022/09/17 03:26:54;;;;;;;3.60;2.27;;;;;;;;;;4972721;28;20456;-75
2022/09/17 03:29:21;;;;;;;1.77;1.67;;;;;;;;;;4990588;28;20475;-76
2022/09/17 03:31:48;;;;;;;3.87;1.77;;;;;;;;;;4990797;28;20550;-76
2022/09/17 03:34:15;;;;;;;3.10;1.80;;;;;;;;;;4990627;28;20453;-76
2022/09/17 03:36:42;;;;;;;2.33;1.87;;;;;;;;;;4990789;28;20452;-76
2022/09/17 03:39:10;;;;;;;4.37;2.43;;;;;;;;;;4991040;28;20553;-76
2022/09/17 03:41:37;;;;;;;3.77;2.10;;;;;;;;;;4990432;28;20451;-77
2022/09/17 03:44:05;;;;;;;3.70;1.67;;;;;;;;;;4992206;28;20458;-75
2022/09/17 03:46:32;;;;;;;4.20;2.33;;;;;;;;;;4993665;28;20976;-75
2022/09/17 03:48:59;;;;;;;2.10;1.90;;;;;;;;;;4995555;28;20499;-76
2022/09/17 03:51:26;;;;;;;2.43;1.90;;;;;;;;;;4995539;28;20578;-75
2022/09/17 03:53:53;;;;;;;2.40;2.10;;;;;;;;;;4995648;28;20452;-76
2022/09/17 03:56:22;;;;;;;3.57;2.57;;;;;;;;;;4995901;28;20472;-76
2022/09/17 03:58:49;;;;;;;1.97;1.80;;;;;;;;;;4994700;28;20471;-75
2022/09/17 04:01:16;;;;;;;5.87;2.77;;;;;;;;;;4994589;28;20457;-76
2022/09/17 04:03:44;;;;;;;3.73;1.90;;;;;;;;;;4997076;28;20550;-76
2022/09/17 04:06:11;;;;;;;3.83;2.07;;;;;;;;;;4997581;28;20452;-75
2022/09/17 04:08:38;;;;;;;3.50;2.47;;;;;;;;;;4994038;28;20479;-76
2022/09/17 04:11:06;;;;;;;6.63;2.13;;;;;;;;;;4994290;28;20494;-76
2022/09/17 04:13:35;;;;;;;4.40;2.50;;;;;;;;;;4994276;28;20455;-75
2022/09/17 04:16:03;;;;;;;5.70;2.07;;;;;;;;;;4993754;28;20447;-77
2022/09/17 04:18:30;;;;;;;2.70;2.10;;;;;;;;;;4993849;28;20482;-76
2022/09/17 04:20:58;;;;;;;4.50;2.30;;;;;;;;;;4994781;28;20527;-75
2022/09/17 04:23:25;;;;;;;3.80;1.97;;;;;;;;;;4995057;28;20444;-75
2022/09/17 04:25:52;;;;;;;3.93;2.10;;;;;;;;;;4993819;28;20479;-76
2022/09/17 04:28:19;;;;;;;4.63;2.20;;;;;;;;;;4993314;28;21031;-76
2022/09/17 04:30:48;;;;;;;4.27;2.47;;;;;;;;;;4993507;28;20483;-75
2022/09/17 04:33:15;;;;;;;2.60;1.90;;;;;;;;;;4993458;28;20455;-75
2022/09/17 04:35:42;;;;;;;3.63;1.87;;;;;;;;;;4993728;28;20451;-75
2022/09/17 04:38:09;;;;;;;2.80;2.23;;;;;;;;;;4993524;28;20472;-76
2022/09/17 04:40:36;;;;;;;4.20;1.70;;;;;;;;;;4992304;28;20451;-75
2022/09/17 04:43:03;;;;;;;3.80;2.50;;;;;;;;;;4996849;28;20534;-75
2022/09/17 04:45:32;;;;;;;3.43;2.30;;;;;;;;;;4995709;28;20448;-76
2022/09/17 04:48:00;;;;;;;3.30;2.10;;;;;;;;;;4996691;28;20480;-76
2022/09/17 04:50:27;;;;;;;2.10;1.90;;;;;;;;;;4997164;28;20476;-76
2022/09/17 04:52:54;;;;;;;5.63;2.30;;;;;;;;;;4996895;28;20468;-75
2022/09/17 04:55:21;;;;;;;4.10;3.00;;;;;;;;;;4995440;28;20452;-76
2022/09/17 04:57:49;;;;;;;2.77;2.10;;;;;;;;;;4994272;28;20479;-76
2022/09/17 05:00:16;;;;;;;3.70;2.73;;;;;;;;;;4993015;28;20470;-75
2022/09/17 05:02:44;;;;;;;3.83;2.67;;;;;;;;;;4992803;28;20451;-75
2022/09/17 05:05:13;;;;;;;3.70;2.77;;;;;;;;;;4993105;28;20542;-76
2022/09/17 05:07:40;;;;;;;4.87;2.70;;;;;;;;;;4993018;28;20474;-76
2022/09/17 05:10:08;;;;;;;3.40;2.43;;;;;;;;;;4992738;28;20451;-75
2022/09/17 05:12:35;;;;;;;3.63;2.57;;;;;;;;;;4992766;28;20506;-75
2022/09/17 05:15:02;;;;;;;2.90;2.60;;;;;;;;;;4992889;28;20455;-76
2022/09/17 05:17:29;;;;;;;2.90;2.30;;;;;;;;;;4992490;28;20444;-76
2022/09/17 05:19:56;;;;;;;4.40;3.00;;;;;;;;;;4992515;28;21038;-77
2022/09/17 05:22:24;;;;;;;2.53;2.30;;;;;;;;;;4992754;28;20441;-76
2022/09/17 05:24:51;;;;;;;4.37;3.60;;;;;;;;;;4992408;28;20448;-75
2022/09/17 05:27:18;;;;;;;4.23;2.20;;;;;;;;;;4992776;28;20487;-76
2022/09/17 05:29:46;;;;;;;2.67;2.33;;;;;;;;;;4992918;28;20444;-76
2022/09/17 05:32:13;;;;;;;3.00;2.60;;;;;;;;;;4992526;28;20859;-77
2022/09/17 05:34:40;;;;;;;3.40;2.37;;;;;;;;;;4992748;28;20501;-75
2022/09/17 05:37:07;;;;;;;3.17;2.77;;;;;;;;;;4993289;28;20970;-75
2022/09/17 05:39:35;;;;;;;3.23;2.37;;;;;;;;;;4992877;28;20475;-77
2022/09/17 05:42:02;;;;;;;3.10;2.60;;;;;;;;;;4992958;28;20444;-77
2022/09/17 05:44:29;;;;;;;3.17;2.80;;;;;;;;;;4992387;28;20523;-75
2022/09/17 05:46:57;;;;;;;4.67;2.73;;;;;;;;;;4992577;28;20531;-75
2022/09/17 05:49:24;;;;;;;3.83;2.87;;;;;;;;;;4992396;28;20468;-76
2022/09/17 05:51:51;;;;;;;2.80;2.57;;;;;;;;;;4992462;28;20510;-76
2022/09/17 05:54:18;;;;;;;4.47;3.00;;;;;;;;;;4991637;28;20459;-76
2022/09/17 05:56:47;;;;;;;7.80;3.70;;;;;;;;;;4992058;28;20431;-76
2022/09/17 05:59:14;;;;;;;4.80;2.80;;;;;;;;;;4991795;28;20474;-76
2022/09/17 06:01:42;;;;;;;4.07;2.70;;;;;;;;;;4992288;28;20474;-76
2022/09/17 06:04:10;;;;;;;3.90;3.10;;;;;;;;;;4991758;28;20490;-76
2022/09/17 06:06:37;;;;;;;5.27;3.00;;;;;;;;;;4992135;28;20462;-76
2022/09/17 06:09:05;;;;;;;3.40;2.23;;;;;;;;;;4991327;28;20475;-76
2022/09/17 06:11:32;;;;;;;3.50;2.80;;;;;;;;;;4991584;28;20538;-76
2022/09/17 06:14:00;;;;;;;8.20;3.20;;;;;;;;;;4991569;28;20459;-76
2022/09/17 06:16:27;;;;;;;7.23;3.10;;;;;;;;;;4991623;28;20447;-76
2022/09/17 06:18:54;;;;;;;3.50;3.17;;;;;;;;;;4987081;28;20539;-76
2022/09/17 06:21:21;;;;;;;5.10;3.37;;;;;;;;;;4983419;28;20451;-77
2022/09/17 06:23:49;;;;;;;5.70;3.10;;;;;;;;;;4991881;28;20455;-77
2022/09/17 06:26:16;;;;;;;2.90;2.70;;;;;;;;;;4991610;28;20471;-76
2022/09/17 06:28:43;;;;;;;5.30;3.03;;;;;;;;;;4991259;28;20504;-76
2022/09/17 06:31:12;;;;;;;5.03;3.27;;;;;;;;;;4991466;28;20503;-75
2022/09/17 06:33:39;;;;;;;7.00;3.07;;;;;;;;;;4991320;28;20451;-75
2022/09/17 06:36:07;;;;;;;5.30;3.37;;;;;;;;;;4995927;28;21014;-76
2022/09/17 06:38:35;;;;;;;6.83;3.20;;;;;;;;;;5004135;28;20466;-75
2022/09/17 06:41:03;;;;;;;6.47;3.07;;;;;;;;;;5003217;28;20954;-76
2022/09/17 06:43:30;;;;;;;6.97;3.30;;;;;;;;;;5003759;28;20448;-76
2022/09/17 06:45:58;;;;;;;4.90;3.50;;;;;;;;;;5004029;28;20445;-76
2022/09/17 06:48:27;;;;;;;3.40;3.13;;;;;;;;;;5002936;28;20539;-76
2022/09/17 06:50:54;;;;;;;2.93;2.63;;;;;;;;;;4991654;28;20452;-76
2022/09/17 06:53:22;;;;;;;3.97;3.67;;;;;;;;;;4991332;28;20460;-75
2022/09/17 06:55:49;;;;;;;3.83;2.97;;;;;;;;;;4990740;28;21030;-76
2022/09/17 06:58:16;;;;;;;3.63;2.90;;;;;;;;;;4990956;28;20476;-75
2022/09/17 07:00:43;;;;;;;3.53;3.23;;;;;;;;;;4991300;28;20494;-76
2022/09/17 07:03:10;;;;;;;3.33;2.90;;;;;;;;;;4991310;28;20440;-76
2022/09/17 07:05:39;;;;;;;5.63;2.90;;;;;;;;;;4991346;28;20456;-76
2022/09/17 07:08:07;;;;;;;4.10;3.30;;;;;;;;;;4991283;28;20460;-76
2022/09/17 07:10:34;;;;;;;3.27;2.93;;;;;;;;;;4991688;28;20445;-76
2022/09/17 07:13:01;;;;;;;3.73;3.10;;;;;;;;;;4990859;28;20913;-76
2022/09/17 07:15:28;;;;;;;4.50;2.93;;;;;;;;;;4991556;28;20448;-76
2022/09/17 07:17:55;;;;;;;3.80;2.50;;;;;;;;;;4991092;28;21008;-75
2022/09/17 07:20:22;;;;;;;12.33;3.53;;;;;;;;;;4993396;28;20449;-76
2022/09/17 07:22:57;;;;;;;3.80;2.97;;;;;;;;;;4995011;28;20451;-76
2022/09/17 07:25:25;;;;;;;4.70;3.30;;;;;;;;;;4995861;28;20872;-75
2022/09/17 07:27:52;;;;;;;2.90;2.60;;;;;;;;;;4995103;28;20464;-75
2022/09/17 07:30:20;;;;;;;7.87;3.20;;;;;;;;;;4994863;28;20452;-76
2022/09/17 07:32:47;;;;;;;3.87;3.07;;;;;;;;;;4992248;28;20491;-76
2022/09/17 07:35:14;;;;;;;5.80;3.30;;;;;;;;;;4975606;28;21296;-75
2022/09/17 07:37:41;;;;;;;3.13;2.93;;;;;;;;;;4975651;28;20469;-76
2022/09/17 07:40:10;;;;;;;3.90;3.23;;;;;;;;;;4975634;28;20452;-76
2022/09/17 07:42:37;;;;;;;3.23;2.80;;;;;;;;;;4975673;28;20448;-76
2022/09/17 07:45:05;;;;;;;3.93;3.43;;;;;;;;;;4980250;28;20449;-77
2022/09/17 07:47:32;;;;;;;4.83;3.50;;;;;;;;;;4978856;28;20461;-75
2022/09/17 07:49:59;;;;;;;2.93;2.73;;;;;;;;;;4975536;28;20528;-76
2022/09/17 07:52:26;;;;;;;5.30;3.00;;;;;;;;;;4975545;28;20485;-76
2022/09/17 07:54:53;;;;;;;3.37;3.13;;;;;;;;;;4974893;28;20459;-76
2022/09/17 07:57:21;;;;;;;3.70;3.40;;;;;;;;;;4974952;28;20449;-75
2022/09/17 07:59:48;;;;;;;4.40;3.93;;;;;;;;;;4975156;28;20457;-76
2022/09/17 08:02:15;;;;;;;3.33;3.03;;;;;;;;;;4974820;28;20454;-75
2022/09/17 08:04:43;;;;;;;4.70;3.40;;;;;;;;;;4975526;28;20445;-75
2022/09/17 08:07:11;;;;;;;2.87;2.67;;;;;;;;;;4975016;28;20540;-76
2022/09/17 08:09:38;;;;;;;6.60;3.07;;;;;;;;;;4974743;28;20445;-76
2022/09/17 08:12:06;;;;;;;3.43;3.13;;;;;;;;;;4974443;28;20496;-75
2022/09/17 08:14:34;;;;;;;2.80;2.63;;;;;;;;;;4974741;28;20478;-76
2022/09/17 08:17:01;;;;;;;4.37;3.60;;;;;;;;;;4974901;28;20457;-74
2022/09/17 08:19:31;;;;;;;3.67;3.37;;;;;;;;;;4975217;28;20469;-77
2022/09/17 08:21:58;;;;;;;5.20;3.70;;;;;;;;;;4975172;28;20457;-76
2022/09/17 08:24:26;;;;;;;7.53;4.17;;;;;;;;;;4974365;28;20802;-75
2022/09/17 08:26:53;;;;;;;4.80;3.30;;;;;;;;;;4974785;28;20454;-75
2022/09/17 08:29:20;;;;;;;4.73;2.90;;;;;;;;;;4974527;28;20467;-76
2022/09/17 08:31:48;;;;;;;4.13;3.80;;;;;;;;;;4974405;28;20559;-76
2022/09/17 08:34:15;;;;;;;4.17;3.37;;;;;;;;;;4976828;28;20476;-75
2022/09/17 08:36:43;;;;;;;5.77;3.40;;;;;;;;;;4975947;28;20511;-76
2022/09/17 08:39:11;;;;;;;3.83;2.90;;;;;;;;;;4978530;28;20575;-76
2022/09/17 08:41:43;;;;;;;4.60;3.00;;;;;;;;;;4997227;28;20510;-77
2022/09/17 08:44:15;;;;;;;5.63;3.30;;;;;;;;;;4983180;28;20494;-76
2022/09/17 08:46:46;;;;;;;10.60;3.40;;;;;;;;;;4974499;28;20442;-78
2022/09/17 08:49:20;;;;;;;3.83;3.43;;;;;;;;;;4973698;28;20488;-75
2022/09/17 08:51:53;;;;;;;4.50;3.60;;;;;;;;;;4974550;28;20511;-76
2022/09/17 08:54:26;;;;;;;11.60;3.80;;;;;;;;;;4993570;28;20472;-75
2022/09/17 08:57:03;;;;;;;6.87;3.67;;;;;;;;;;4993405;28;20486;-76
2022/09/17 08:59:33;;;;;;;6.20;3.60;;;;;;;;;;4993181;28;20467;-75
2022/09/17 09:02:04;;;;;;;5.67;3.70;;;;;;;;;;4994071;28;20440;-76
2022/09/17 09:04:45;;;;;;;6.60;3.43;;;;;;;;;;4993902;28;20452;-76
2022/09/17 09:07:15;;;;;;;5.67;3.77;;;;;;;;;;4995076;28;20483;-76
2022/09/17 09:09:47;;;;;;;7.37;3.83;;;;;;;;;;4995394;28;20444;-76
2022/09/17 09:12:17;;;;;;;8.10;3.70;;;;;;;;;;4994016;28;20620;-77
2022/09/17 09:14:48;;;;;;;7.03;3.10;;;;;;;;;;4993077;28;20433;-76
2022/09/17 09:17:18;;;;;;;9.27;2.60;;;;;;;;;;4993023;28;20995;-76
2022/09/17 09:19:48;;;;;;;9.30;3.17;;;;;;;;;;4992969;28;20455;-77
2022/09/17 09:22:26;;;;;;;5.57;2.77;;;;;;;;;;4993289;28;20494;-77
2022/09/17 09:25:00;;;;;;;11.53;3.30;;;;;;;;;;4992843;28;20441;-76
2022/09/17 09:27:28;;;;;;;10.67;3.13;;;;;;;;;;4992753;28;20799;-78
2022/09/17 09:30:02;;;;;;;8.80;3.47;;;;;;;;;;4992618;28;20997;-76
2022/09/17 09:32:37;;;;;;;8.73;2.83;;;;;;;;;;4992381;28;20464;-76
2022/09/17 09:35:14;;;;;;;6.47;3.00;;;;;;;;;;4990107;28;20448;-76
2022/09/17 09:37:44;;;;;;;7.60;3.33;;;;;;;;;;4988346;28;20538;-77
2022/09/17 09:40:20;;;;;;;4.30;3.30;;;;;;;;;;4973519;28;20949;-76
2022/09/17 09:42:48;;;;;;;9.80;3.50;;;;;;;;;;4972766;28;20446;-76
2022/09/17 09:45:16;;;;;;;6.00;3.60;;;;;;;;;;4972844;28;20451;-76
2022/09/17 09:47:49;;;;;;;5.53;3.00;;;;;;;;;;4973337;28;20476;-77
2022/09/17 09:50:24;;;;;;;7.30;3.50;;;;;;;;;;4973517;28;20430;-76
2022/09/17 09:52:58;;;;;;;5.00;3.03;;;;;;;;;;4973353;28;20531;-77
2022/09/17 09:55:47;;;;;;;4.20;3.10;;;;;;;;;;4982800;28;20468;-75
2022/09/17 09:58:18;;;;;;;5.63;2.90;;;;;;;;;;4981179;28;20556;-76
2022/09/17 10:00:45;;;;;;;5.70;3.40;;;;;;;;;;4973572;28;20454;-77
2022/09/17 10:03:13;;;;;;;7.13;3.10;;;;;;;;;;4973133;28;20457;-77
2022/09/17 10:05:52;;;;;;;8.27;3.47;;;;;;;;;;4973240;28;20480;-76
2022/09/17 10:08:19;;;;;;;3.40;2.80;;;;;;;;;;4973026;28;20876;-77
2022/09/17 10:10:56;;;;;;;5.17;3.23;;;;;;;;;;4972837;28;20504;-76
2022/09/17 10:13:23;;;;;;;5.53;2.93;;;;;;;;;;4972136;28;20489;-76
2022/09/17 10:15:50;;;;;;;5.17;3.30;;;;;;;;;;4973487;28;20453;-77
2022/09/17 10:18:18;;;;;;;4.93;2.80;;;;;;;;;;4972344;28;20473;-77
2022/09/17 10:20:54;;;;;;;3.10;2.63;;;;;;;;;;4973052;28;21000;-76
2022/09/17 10:23:22;;;;;;;3.27;2.83;;;;;;;;;;4973561;28;20449;-76
2022/09/17 10:25:50;;;;;;;5.47;2.57;;;;;;;;;;4974199;28;20460;-77
2022/09/17 10:28:32;;;;;;;2.97;2.43;;;;;;;;;;4973970;28;20505;-76
2022/09/17 10:31:00;;;;;;;4.80;2.70;;;;;;;;;;4972221;28;20492;-78
2022/09/17 10:33:28;;;;;;;3.40;2.27;;;;;;;;;;4974624;28;20491;-76
2022/09/17 10:36:01;;;;;;;3.53;2.80;;;;;;;;;;4981416;28;20452;-77
2022/09/17 10:38:30;;;;;;;4.43;2.37;;;;;;;;;;4993011;28;20499;-77
2022/09/17 10:41:10;;;;;;;6.67;2.30;;;;;;;;;;4993173;28;20511;-77
2022/09/17 10:43:37;;;;;;;5.00;2.70;;;;;;;;;;4983627;28;20451;-77
2022/09/17 10:46:05;;;;;;;5.73;2.10;;;;;;;;;;4992256;28;20535;-77
2022/09/17 10:48:33;;;;;;;6.07;2.50;;;;;;;;;;4972848;28;20472;-76
2022/09/17 10:51:05;;;;;;;2.50;2.07;;;;;;;;;;4972658;28;20536;-76
2022/09/17 10:53:32;;;;;;;3.80;2.00;;;;;;;;;;4972254;28;20513;-77
2022/09/17 10:56:06;;;;;;;2.70;1.93;;;;;;;;;;4971821;28;20457;-78
2022/09/17 10:58:38;;;;;;;5.47;2.23;;;;;;;;;;4972515;28;20538;-77
2022/09/17 11:01:09;;;;;;;4.33;2.33;;;;;;;;;;4972049;28;20908;-76
2022/09/17 11:03:52;;;;;;;2.90;1.70;;;;;;;;;;4972114;28;20442;-77
2022/09/17 11:06:34;;;;;;;3.10;1.60;;;;;;;;;;4971948;28;20468;-77
2022/09/17 11:09:06;;;;;;;2.13;1.60;;;;;;;;;;4979140;28;20464;-77
2022/09/17 11:11:40;;;;;;;3.03;2.17;;;;;;;;;;4990780;28;20428;-76
2022/09/17 11:14:13;;;;;;;5.10;2.13;;;;;;;;;;4990863;28;20567;-77
2022/09/17 11:16:44;;;;;;;7.00;2.00;;;;;;;;;;4991479;28;20491;-77
2022/09/17 11:19:19;;;;;;;4.33;1.80;;;;;;;;;;4991450;28;20518;-77
2022/09/17 11:21:49;;;;;;;2.80;1.60;;;;;;;;;;4993079;28;20452;-75
2022/09/17 11:24:34;;;;;;;3.50;2.03;;;;;;;;;;4991739;28;20432;-77
2022/09/17 11:27:05;;;;;;;2.90;2.50;;;;;;;;;;4991876;28;20444;-79
2022/09/17 11:29:51;;;;;;;5.40;2.60;;;;;;;;;;4991152;28;20495;-77
2022/09/17 11:32:29;;;;;;;5.77;2.03;;;;;;;;;;4990345;28;20440;-77
2022/09/17 11:35:00;;;;;;;3.70;2.30;;;;;;;;;;4991850;28;20448;-77
2022/09/17 11:37:28;;;;;;;2.03;1.50;;;;;;;;;;4991918;28;20440;-77
2022/09/17 11:39:59;;;;;;;2.03;1.80;;;;;;;;;;4992342;28;20511;-76
2022/09/17 11:42:31;;;;;;;2.73;2.00;;;;;;;;;;4991251;28;20475;-75
2022/09/17 11:45:01;;;;;;;3.83;1.63;;;;;;;;;;4991896;28;20498;-77
2022/09/17 11:47:31;;;;;;;1.97;1.50;;;;;;;;;;4991919;28;20437;-77
2022/09/17 11:50:01;;;;;;;2.17;1.97;;;;;;;;;;4991373;28;20441;-76
2022/09/17 11:52:30;;;;;;;3.57;1.70;;;;;;;;;;4990547;28;20620;-77
2022/09/17 11:55:02;;;;;;;4.43;1.40;;;;;;;;;;4990735;28;20834;-76
2022/09/17 11:57:32;;;;;;;2.70;1.70;;;;;;;;;;4990829;28;20818;-77
2022/09/17 12:00:03;;;;;;;4.17;1.53;;;;;;;;;;4991175;28;20451;-76
2022/09/17 12:02:38;;;;;;;1.77;1.60;;;;;;;;;;4989296;28;20468;-76
2022/09/17 12:05:07;;;;;;;3.80;1.70;;;;;;;;;;4990250;28;20444;-76
2022/09/17 12:07:37;;;;;;;4.63;1.90;;;;;;;;;;4992641;28;20861;-75
2022/09/17 12:10:17;;;;;;;3.73;1.50;;;;;;;;;;4994106;28;20440;-77
2022/09/17 12:12:46;;;;;;;1.60;1.50;;;;;;;;;;4993692;28;20819;-76
2022/09/17 12:15:15;;;;;;;3.33;1.90;;;;;;;;;;4993690;28;20825;-76
2022/09/17 12:17:45;;;;;;;3.80;1.63;;;;;;;;;;4993855;28;20468;-77
2022/09/17 12:20:19;;;;;;;2.63;1.67;;;;;;;;;;4994499;28;20503;-76
2022/09/17 12:22:49;;;;;;;2.00;1.50;;;;;;;;;;4993630;28;20942;-76
2022/09/17 12:25:18;;;;;;;3.00;1.80;;;;;;;;;;4994124;28;20518;-77
2022/09/17 12:27:49;;;;;;;4.63;1.90;;;;;;;;;;4994391;28;20464;-77
2022/09/17 12:30:18;;;;;;;5.23;2.00;;;;;;;;;;4993659;28;20928;-76
2022/09/17 12:32:49;;;;;;;3.13;1.97;;;;;;;;;;4992593;28;20452;-78
2022/09/17 12:35:20;;;;;;;4.97;2.27;;;;;;;;;;4994225;28;21021;-77
2022/09/17 12:37:55;;;;;;;2.60;1.93;;;;;;;;;;4994111;28;20471;-77
2022/09/17 12:40:27;;;;;;;2.73;1.93;;;;;;;;;;4994166;28;20455;-77
2022/09/17 12:43:05;;;;;;;3.20;2.00;;;;;;;;;;4993397;28;20443;-76
2022/09/17 12:45:43;;;;;;;2.00;1.67;;;;;;;;;;4993962;28;20519;-77
2022/09/17 12:48:29;;;;;;;2.90;1.60;;;;;;;;;;4992224;28;20506;-78
2022/09/17 12:51:02;;;;;;;3.50;1.80;;;;;;;;;;4993725;28;20436;-77
2022/09/17 12:53:31;;;;;;;2.27;1.40;;;;;;;;;;4993413;28;20468;-77
2022/09/17 12:56:06;;;;;;;2.10;1.50;;;;;;;;;;4993242;28;20468;-77
2022/09/17 12:58:42;;;;;;;1.93;1.33;;;;;;;;;;4993423;28;21045;-78
2022/09/17 13:01:12;;;;;;;2.10;1.30;;;;;;;;;;4992564;28;20472;-77
2022/09/17 13:03:43;;;;;;;2.10;1.30;;;;;;;;;;4982324;28;20946;-77
2022/09/17 13:06:17;;;;;;;3.23;1.53;;;;;;;;;;4992274;28;20445;-77
2022/09/17 13:09:01;;;;;;;1.10;1.10;;;;;;;;;;4975188;28;20960;-77
2022/09/17 13:11:50;;;;;;;1.27;1.17;;;;;;;;;;4983865;28;20436;-78
2022/09/17 13:14:22;;;;;;;1.40;1.27;;;;;;;;;;4994029;28;20465;-77
2022/09/17 13:16:52;;;;;;;1.83;1.63;;;;;;;;;;4994443;28;21243;-77
2022/09/17 13:19:26;;;;;;;1.00;1.00;;;;;;;;;;4993269;28;20469;-77
2022/09/17 13:21:54;;;;;;;1.20;1.20;;;;;;;;;;4993908;28;20442;-78
2022/09/17 13:24:23;;;;;;;1.27;1.23;;;;;;;;;;4994631;28;20437;-77
2022/09/17 13:26:52;;;;;;;2.40;1.03;;;;;;;;;;4995182;28;20456;-76
2022/09/17 13:29:41;;;;;;;1.90;1.10;;;;;;;;;;4995221;28;20468;-76
2022/09/17 13:32:08;;;;;;;1.43;1.00;;;;;;;;;;4977344;28;20441;-77
2022/09/17 13:34:35;;;;;;;1.83;1.27;;;;;;;;;;4974610;28;20500;-76
2022/09/17 13:37:06;;;;;;;1.47;1.40;;;;;;;;;;4982064;28;20480;-77
2022/09/17 13:39:35;;;;;;;1.43;1.33;;;;;;;;;;4994423;28;20527;-77
2022/09/17 13:42:06;;;;;;;1.20;1.20;;;;;;;;;;4994814;28;20859;-77
2022/09/17 13:44:34;;;;;;;1.73;1.10;;;;;;;;;;4993321;28;20449;-77
2022/09/17 13:47:09;;;;;;;1.63;1.33;;;;;;;;;;4992753;28;20460;-76
2022/09/17 13:49:36;;;;;;;1.67;1.40;;;;;;;;;;4992322;28;20468;-76
2022/09/17 13:52:03;;;;;;;2.67;1.40;;;;;;;;;;4992667;28;20453;-76
2022/09/17 13:54:37;;;;;;;1.37;1.27;;;;;;;;;;4992476;28;20483;-78
2022/09/17 13:57:08;;;;;;;1.60;1.50;;;;;;;;;;4993312;28;20452;-77
2022/09/17 13:59:36;;;;;;;1.80;1.70;;;;;;;;;;4992179;28;20480;-77
2022/09/17 14:02:05;;;;;;;1.20;1.13;;;;;;;;;;4991641;28;20444;-77
2022/09/17 14:04:36;;;;;;;1.43;1.30;;;;;;;;;;4991210;28;20819;-77
2022/09/17 14:07:28;;;;;;;3.30;1.67;;;;;;;;;;4992132;28;20448;-77
2022/09/17 14:09:56;;;;;;;1.47;1.37;;;;;;;;;;4979968;28;20454;-77
2022/09/17 14:12:43;;;;;;;1.37;1.27;;;;;;;;;;4999795;28;20455;-76
2022/09/17 14:15:25;;;;;;;4.00;1.67;;;;;;;;;;4997947;28;20472;-78
2022/09/17 14:17:53;;;;;;;1.70;1.60;;;;;;;;;;4998224;28;20452;-76
2022/09/17 14:20:21;;;;;;;2.03;1.90;;;;;;;;;;4999513;28;20520;-78
2022/09/17 14:22:55;;;;;;;2.10;1.90;;;;;;;;;;4998382;28;20440;-78
2022/09/17 14:25:23;;;;;;;1.57;1.43;;;;;;;;;;4995327;28;20467;-77
2022/09/17 14:27:54;;;;;;;3.73;1.70;;;;;;;;;;4997062;28;20460;-77
2022/09/17 14:30:22;;;;;;;1.67;1.40;;;;;;;;;;4994120;28;20429;-78
2022/09/17 14:32:53;;;;;;;1.67;1.60;;;;;;;;;;4992555;28;20444;-79
2022/09/17 14:35:23;;;;;;;2.50;1.50;;;;;;;;;;4996212;28;20495;-79
2022/09/17 14:37:53;;;;;;;2.50;1.20;;;;;;;;;;4996384;28;20463;-78
2022/09/17 14:40:22;;;;;;;1.80;1.20;;;;;;;;;;4995475;28;20472;-77
2022/09/17 14:42:51;;;;;;;2.20;1.30;;;;;;;;;;4996351;28;20731;-78
2022/09/17 14:45:21;;;;;;;1.60;1.50;;;;;;;;;;4999053;28;20433;-77
2022/09/17 14:47:48;;;;;;;1.90;1.37;;;;;;;;;;4996603;28;20449;-78
2022/09/17 14:50:24;;;;;;;2.20;1.60;;;;;;;;;;4994845;28;20452;-77
2022/09/17 14:52:52;;;;;;;2.77;1.90;;;;;;;;;;4996150;28;20444;-77
2022/09/17 14:55:20;;;;;;;2.70;1.70;;;;;;;;;;4995323;28;20487;-76
2022/09/17 14:57:49;;;;;;;3.20;1.77;;;;;;;;;;4992923;28;20468;-79
2022/09/17 15:00:21;;;;;;;1.93;1.50;;;;;;;;;;4992838;28;20452;-77